Time;durP1;ratioP1;P1;durP2;ratioP2;P2;SDS_P1;SDS_P2;PMS_P1;PMS_P2;Temp;Humidity;BMP_temperature;BMP_pressure;BME280_temperature;BME280_humidity;BME280_pressure;Samples;Min_cycle;Max_cycle;Signal;HPM_P1;HPM_P2
2020/12/10 00:00:31;;;;;;;10.38;4.82;;;6.10;70.10;;;;;;2229053;55;21522;-72
2020/12/10 00:02:59;;;;;;;17.33;7.65;;;6.20;70.10;;;;;;2459927;56;21424;-72
2020/12/10 00:05:26;;;;;;;18.08;8.32;;;6.10;70.00;;;;;;2456931;56;21054;-72
2020/12/10 00:07:52;;;;;;;21.23;9.10;;;6.10;69.90;;;;;;2227689;55;21165;-72
2020/12/10 00:10:20;;;;;;;15.35;7.28;;;6.10;69.90;;;;;;2230937;56;21021;-72
2020/12/10 00:12:46;;;;;;;12.35;5.97;;;6.10;69.80;;;;;;2236668;56;21003;-72
2020/12/10 00:15:13;;;;;;;13.70;6.50;;;6.10;69.70;;;;;;2441041;55;21022;-72
2020/12/10 00:17:40;;;;;;;12.43;6.43;;;6.10;69.70;;;;;;2449647;55;21091;-72
2020/12/10 00:20:07;;;;;;;14.57;7.62;;;6.10;69.60;;;;;;2450893;55;21607;-72
2020/12/10 00:22:34;;;;;;;15.07;7.55;;;6.00;69.40;;;;;;2447269;56;21065;-72
2020/12/10 00:25:03;;;;;;;11.12;5.97;;;6.00;69.40;;;;;;2223650;55;21069;-71
2020/12/10 00:27:30;;;;;;;12.10;5.65;;;6.00;69.50;;;;;;2239174;56;20980;-72
2020/12/10 00:29:59;;;;;;;14.23;7.28;;;6.00;69.60;;;;;;2237689;56;21064;-71
2020/12/10 00:32:26;;;;;;;15.50;7.32;;;6.00;69.70;;;;;;2238526;56;20944;-72
2020/12/10 00:34:55;;;;;;;13.20;6.25;;;6.00;69.60;;;;;;2238390;56;21379;-71
2020/12/10 00:37:26;;;;;;;15.00;7.57;;;5.90;69.60;;;;;;2228708;56;21003;-71
2020/12/10 00:39:54;;;;;;;16.45;7.50;;;5.90;69.60;;;;;;2207426;56;21035;-72
2020/12/10 00:42:21;;;;;;;15.18;7.25;;;5.90;69.70;;;;;;2230476;55;20996;-72
2020/12/10 00:44:50;;;;;;;12.63;5.78;;;5.90;69.80;;;;;;2237772;55;21032;-72
2020/12/10 00:47:18;;;;;;;12.20;5.72;;;5.90;69.80;;;;;;2238890;56;21000;-72
2020/12/10 00:49:45;;;;;;;12.55;5.90;;;5.90;69.90;;;;;;2228006;56;20970;-71
2020/12/10 00:52:12;;;;;;;13.02;6.47;;;5.90;69.80;;;;;;2238074;56;21004;-71
2020/12/10 00:54:42;;;;;;;15.82;7.12;;;5.90;69.80;;;;;;2443954;55;21870;-72
2020/12/10 00:57:10;;;;;;;14.15;7.03;;;5.90;69.80;;;;;;2450258;55;21567;-72
2020/12/10 00:59:40;;;;;;;11.88;5.87;;;5.90;69.70;;;;;;2237676;56;21044;-72
2020/12/10 01:02:09;;;;;;;12.37;5.95;;;5.90;69.70;;;;;;2237686;56;21009;-72
2020/12/10 01:04:36;;;;;;;12.65;5.70;;;5.80;69.50;;;;;;2447031;55;20999;-72
2020/12/10 01:07:03;;;;;;;14.10;6.28;;;5.80;69.40;;;;;;2231703;56;21002;-72
2020/12/10 01:09:33;;;;;;;12.13;6.20;;;5.80;69.30;;;;;;2440683;55;20962;-72
2020/12/10 01:12:04;;;;;;;11.77;5.55;;;5.80;69.10;;;;;;2237714;55;20976;-72
2020/12/10 01:14:34;;;;;;;10.32;4.75;;;5.70;68.80;;;;;;2237097;55;20983;-71
2020/12/10 01:17:01;;;;;;;10.38;5.07;;;5.70;68.50;;;;;;2232740;55;21027;-71
2020/12/10 01:19:28;;;;;;;10.35;4.90;;;5.60;68.10;;;;;;2227790;56;21072;-71
2020/12/10 01:21:54;;;;;;;9.25;4.50;;;5.60;67.90;;;;;;2232124;56;21070;-71
2020/12/10 01:24:20;;;;;;;10.65;4.68;;;5.60;67.90;;;;;;2232946;56;21457;-72
2020/12/10 01:26:47;;;;;;;8.35;4.05;;;5.50;67.80;;;;;;2224865;56;20982;-71
2020/12/10 01:29:14;;;;;;;10.93;5.10;;;5.40;67.50;;;;;;2237624;56;20992;-71
2020/12/10 01:31:41;;;;;;;9.85;4.55;;;5.30;67.40;;;;;;2461457;55;21743;-71
2020/12/10 01:34:08;;;;;;;11.23;4.53;;;5.30;67.50;;;;;;2459003;55;20928;-71
2020/12/10 01:36:34;;;;;;;10.98;4.65;;;5.20;67.50;;;;;;2462490;55;20959;-71
2020/12/10 01:39:00;;;;;;;10.20;4.75;;;5.10;67.50;;;;;;2238542;56;20964;-72
2020/12/10 01:41:31;;;;;;;8.90;4.43;;;5.10;67.70;;;;;;2232556;56;21471;-72
2020/12/10 01:44:10;;;;;;;10.35;4.70;;;5.10;67.80;;;;;;2443298;55;20952;-72
2020/12/10 01:46:37;;;;;;;9.15;4.30;;;5.00;67.70;;;;;;2454173;55;20944;-72
2020/12/10 01:49:07;;;;;;;11.02;4.93;;;5.00;68.00;;;;;;2206331;57;20979;-72
2020/12/10 01:51:34;;;;;;;11.12;5.07;;;4.90;68.10;;;;;;2234930;56;21839;-71
2020/12/10 01:54:01;;;;;;;11.02;4.80;;;4.90;68.40;;;;;;2227840;55;20947;-72
2020/12/10 01:56:28;;;;;;;11.38;5.10;;;4.90;68.70;;;;;;2229998;56;20976;-72
2020/12/10 01:58:54;;;;;;;10.40;4.43;;;4.80;68.90;;;;;;2444473;56;20991;-71
2020/12/10 02:01:21;;;;;;;10.27;4.47;;;4.80;69.20;;;;;;2451097;55;21512;-71
2020/12/10 02:03:48;;;;;;;10.95;5.50;;;4.80;69.30;;;;;;2450182;55;20979;-71
2020/12/10 02:06:15;;;;;;;11.73;5.10;;;4.80;69.50;;;;;;2450333;56;21473;-71
2020/12/10 02:08:41;;;;;;;12.40;5.70;;;4.80;69.60;;;;;;2238654;56;20941;-71
2020/12/10 02:11:11;;;;;;;12.50;5.75;;;4.80;69.60;;;;;;2238662;56;20962;-72
2020/12/10 02:13:37;;;;;;;14.13;5.95;;;4.80;69.60;;;;;;2448175;56;21334;-72
2020/12/10 02:16:04;;;;;;;12.57;5.50;;;4.90;69.80;;;;;;2457090;55;21086;-71
2020/12/10 02:18:31;;;;;;;12.77;5.70;;;4.80;69.80;;;;;;2232420;56;21002;-72
2020/12/10 02:21:00;;;;;;;15.43;6.90;;;4.90;69.90;;;;;;2227286;55;20991;-72
2020/12/10 02:23:27;;;;;;;13.82;6.18;;;4.90;70.00;;;;;;2228472;55;21002;-72
2020/12/10 02:25:58;;;;;;;16.45;7.43;;;4.90;70.80;;;;;;2236248;55;20971;-72
2020/12/10 02:28:24;;;;;;;14.32;6.72;;;4.90;70.20;;;;;;2231068;55;21041;-72
2020/12/10 02:30:51;;;;;;;13.50;6.18;;;4.90;70.30;;;;;;2216294;55;21273;-73
2020/12/10 02:33:17;;;;;;;13.27;5.85;;;4.90;70.40;;;;;;2241457;55;20957;-72
2020/12/10 02:35:44;;;;;;;13.13;5.87;;;4.90;70.50;;;;;;2224114;55;21040;-73
2020/12/10 02:38:12;;;;;;;12.88;6.10;;;4.90;70.60;;;;;;2462308;55;21493;-72
2020/12/10 02:40:43;;;;;;;10.63;5.05;;;5.00;70.80;;;;;;2461306;55;20944;-72
2020/12/10 02:43:13;;;;;;;12.18;5.47;;;5.00;70.80;;;;;;2206625;57;20989;-72
2020/12/10 02:45:40;;;;;;;14.23;6.05;;;5.00;70.70;;;;;;2235853;56;21071;-71
2020/12/10 02:48:08;;;;;;;10.88;5.20;;;5.00;70.70;;;;;;2226613;55;21478;-72
2020/12/10 02:50:35;;;;;;;11.65;5.22;;;5.10;70.70;;;;;;2444727;56;21047;-72
2020/12/10 02:53:02;;;;;;;11.73;5.25;;;5.10;70.50;;;;;;2448705;55;21030;-72
2020/12/10 02:55:30;;;;;;;11.12;5.00;;;5.10;70.40;;;;;;2232729;55;20984;-71
2020/12/10 02:57:57;;;;;;;11.48;4.87;;;5.10;70.40;;;;;;2228549;56;20955;-72
2020/12/10 03:00:24;;;;;;;11.63;5.30;;;5.10;70.40;;;;;;2462737;55;21040;-72
2020/12/10 03:02:50;;;;;;;11.60;5.70;;;5.10;70.30;;;;;;2224461;56;21040;-72
2020/12/10 03:05:18;;;;;;;10.35;4.90;;;5.10;70.30;;;;;;2443630;56;21013;-71
2020/12/10 03:07:44;;;;;;;12.07;5.22;;;5.10;70.30;;;;;;2238198;56;21661;-72
2020/12/10 03:10:11;;;;;;;11.20;5.07;;;5.20;70.20;;;;;;2226738;56;21807;-72
2020/12/10 03:12:37;;;;;;;11.60;5.43;;;5.20;70.10;;;;;;2236756;56;20961;-72
2020/12/10 03:15:04;;;;;;;12.35;5.40;;;5.20;70.00;;;;;;2461885;55;21497;-71
2020/12/10 03:17:31;;;;;;;10.77;5.43;;;5.20;69.90;;;;;;2238691;56;21805;-72
2020/12/10 03:19:59;;;;;;;8.90;4.18;;;5.10;69.70;;;;;;2460832;55;20954;-72
2020/12/10 03:22:25;;;;;;;10.02;4.68;;;5.20;69.80;;;;;;2238102;56;21838;-72
2020/12/10 03:24:52;;;;;;;10.98;5.28;;;5.10;69.60;;;;;;2237550;56;20960;-71
2020/12/10 03:27:18;;;;;;;9.75;4.60;;;5.10;69.60;;;;;;2238707;56;21072;-72
2020/12/10 03:29:45;;;;;;;10.55;5.12;;;5.10;69.50;;;;;;2461480;56;20949;-72
2020/12/10 03:32:13;;;;;;;10.88;4.85;;;5.10;69.40;;;;;;2462144;56;20996;-72
2020/12/10 03:34:40;;;;;;;9.02;4.37;;;5.10;69.40;;;;;;2237247;56;20976;-71
2020/12/10 03:37:07;;;;;;;12.23;5.15;;;5.10;69.30;;;;;;2237282;56;21619;-72
2020/12/10 03:39:46;;;;;;;10.45;4.53;;;5.10;69.30;;;;;;2232146;56;20984;-72
2020/12/10 03:42:13;;;;;;;9.40;4.28;;;5.00;69.00;;;;;;2225350;56;21044;-72
2020/12/10 03:44:40;;;;;;;11.07;5.15;;;5.00;69.00;;;;;;2240120;56;20993;-72
2020/12/10 03:47:06;;;;;;;8.85;4.05;;;5.00;69.00;;;;;;2446513;56;21043;-72
2020/12/10 03:49:34;;;;;;;10.05;4.90;;;4.90;68.90;;;;;;2461666;55;21072;-72
2020/12/10 03:52:00;;;;;;;9.63;4.50;;;4.90;68.90;;;;;;2238780;55;21794;-72
2020/12/10 03:54:27;;;;;;;10.82;4.80;;;4.90;68.90;;;;;;2228018;56;21383;-71
2020/12/10 03:56:53;;;;;;;10.18;4.60;;;4.90;68.90;;;;;;2224560;56;21058;-71
2020/12/10 03:59:21;;;;;;;10.90;4.68;;;4.90;68.90;;;;;;2443890;55;21113;-71
2020/12/10 04:01:47;;;;;;;12.63;5.43;;;4.80;68.80;;;;;;2228134;55;21027;-71
2020/12/10 04:04:14;;;;;;;11.25;5.00;;;4.80;69.00;;;;;;2462587;55;21394;-72
2020/12/10 04:06:43;;;;;;;8.75;4.10;;;4.80;69.10;;;;;;2238765;56;21497;-72
2020/12/10 04:09:11;;;;;;;12.07;4.90;;;4.80;69.30;;;;;;2238751;56;20936;-72
2020/12/10 04:11:37;;;;;;;10.45;4.85;;;4.80;69.40;;;;;;2234973;55;21063;-71
2020/12/10 04:14:04;;;;;;;10.65;4.90;;;4.80;69.40;;;;;;2454462;56;20965;-72
2020/12/10 04:16:31;;;;;;;11.85;5.07;;;4.80;69.40;;;;;;2238453;56;20973;-72
2020/12/10 04:18:57;;;;;;;12.70;5.50;;;4.80;69.30;;;;;;2238624;56;20967;-71
2020/12/10 04:21:26;;;;;;;12.57;5.40;;;4.70;69.10;;;;;;2418936;56;21162;-71
2020/12/10 04:23:54;;;;;;;11.35;4.82;;;4.70;69.10;;;;;;2462019;55;20964;-72
2020/12/10 04:26:20;;;;;;;9.48;4.72;;;4.70;69.30;;;;;;2444854;56;21015;-71
2020/12/10 04:28:48;;;;;;;11.90;5.15;;;4.70;69.10;;;;;;2240120;56;21024;-72
2020/12/10 04:31:16;;;;;;;9.93;4.50;;;4.70;69.10;;;;;;2228846;55;20942;-71
2020/12/10 04:33:43;;;;;;;12.95;5.72;;;4.60;69.00;;;;;;2454237;55;20973;-72
2020/12/10 04:36:11;;;;;;;12.98;5.32;;;4.60;69.10;;;;;;2237349;56;21046;-71
2020/12/10 04:38:38;;;;;;;10.75;4.80;;;4.60;69.10;;;;;;2450034;56;21949;-72
2020/12/10 04:41:05;;;;;;;13.70;5.97;;;4.60;69.20;;;;;;2238873;56;21060;-72
2020/12/10 04:43:32;;;;;;;11.25;5.10;;;4.60;69.20;;;;;;2461766;55;20972;-71
2020/12/10 04:46:12;;;;;;;10.48;5.05;;;4.60;69.40;;;;;;2228361;56;20977;-71
2020/12/10 04:48:38;;;;;;;10.73;4.80;;;4.60;69.50;;;;;;2462234;55;20961;-71
2020/12/10 04:51:07;;;;;;;10.10;4.78;;;4.60;69.70;;;;;;2238176;56;21029;-71
2020/12/10 04:53:34;;;;;;;9.60;4.55;;;4.60;69.80;;;;;;2238393;56;21568;-71
2020/12/10 04:56:05;;;;;;;10.65;4.90;;;4.60;70.00;;;;;;2206922;57;21033;-71
2020/12/10 04:58:32;;;;;;;8.32;4.12;;;4.60;70.00;;;;;;2210067;55;21578;-71
2020/12/10 05:00:59;;;;;;;8.13;4.05;;;4.60;70.10;;;;;;2435684;55;21734;-71
2020/12/10 05:03:29;;;;;;;7.25;3.30;;;4.70;70.20;;;;;;2441424;56;21015;-71
2020/12/10 05:06:11;;;;;;;7.32;3.22;;;4.70;70.20;;;;;;2236015;55;20961;-71
2020/12/10 05:08:41;;;;;;;9.68;3.60;;;4.70;70.10;;;;;;2238466;56;20989;-71
2020/12/10 05:11:07;;;;;;;8.20;3.83;;;4.70;70.00;;;;;;2443024;55;21471;-71
2020/12/10 05:13:35;;;;;;;8.93;4.22;;;4.70;70.00;;;;;;2451330;55;21473;-71
2020/12/10 05:16:01;;;;;;;8.18;3.85;;;4.70;70.00;;;;;;2238512;56;20973;-71
2020/12/10 05:18:29;;;;;;;11.18;5.12;;;4.70;70.00;;;;;;2451980;56;21060;-71
2020/12/10 05:20:57;;;;;;;8.88;4.45;;;4.70;70.00;;;;;;2450625;55;20958;-71
2020/12/10 05:23:44;;;;;;;10.35;4.72;;;4.70;70.00;;;;;;2237591;56;20996;-71
2020/12/10 05:26:11;;;;;;;10.30;4.57;;;4.70;70.00;;;;;;2228532;55;21028;-71
2020/12/10 05:28:50;;;;;;;10.68;5.18;;;4.80;70.90;;;;;;2462363;55;21147;-71
2020/12/10 05:31:19;;;;;;;12.35;5.45;;;4.80;70.30;;;;;;2238756;56;21720;-71
2020/12/10 05:34:03;;;;;;;12.65;5.12;;;4.80;70.30;;;;;;2459206;55;21420;-71
2020/12/10 05:36:31;;;;;;;12.95;5.97;;;4.80;70.00;;;;;;2450681;56;21505;-71
2020/12/10 05:39:07;;;;;;;11.02;5.12;;;4.80;70.10;;;;;;2238724;56;21863;-71
2020/12/10 05:41:35;;;;;;;9.43;4.82;;;4.80;70.20;;;;;;2238832;56;20981;-71
2020/12/10 05:44:21;;;;;;;9.75;5.03;;;4.80;70.20;;;;;;2236089;56;20944;-71
2020/12/10 05:46:51;;;;;;;10.48;4.55;;;4.90;70.10;;;;;;2462124;55;21000;-71
2020/12/10 05:49:18;;;;;;;8.35;4.22;;;4.90;70.20;;;;;;2207381;57;21015;-72
2020/12/10 05:51:46;;;;;;;8.63;3.90;;;4.90;70.20;;;;;;2205349;57;21846;-71
2020/12/10 05:54:14;;;;;;;7.70;3.72;;;4.90;70.10;;;;;;2237269;56;21426;-71
2020/12/10 05:57:15;;;;;;;8.95;4.00;;;4.90;70.10;;;;;;2238203;56;20925;-71
2020/12/10 05:59:41;;;;;;;8.85;4.50;;;4.90;69.70;;;;;;2238741;56;20929;-72
2020/12/10 06:02:08;;;;;;;9.10;3.90;;;4.90;70.00;;;;;;2238022;56;20957;-71
2020/12/10 06:04:34;;;;;;;9.00;4.40;;;4.90;70.10;;;;;;2461631;55;21561;-71
2020/12/10 06:07:09;;;;;;;11.18;4.75;;;4.90;70.20;;;;;;2240204;56;20977;-71
2020/12/10 06:09:37;;;;;;;8.85;4.60;;;4.90;70.20;;;;;;2226518;56;21023;-72
2020/12/10 06:12:04;;;;;;;9.20;4.62;;;4.90;70.30;;;;;;2238339;56;20941;-71
2020/12/10 06:14:32;;;;;;;7.15;3.70;;;4.90;70.40;;;;;;2461460;55;20975;-71
2020/12/10 06:17:16;;;;;;;8.10;3.92;;;4.90;70.50;;;;;;2461890;56;21009;-71
2020/12/10 06:19:42;;;;;;;9.65;4.70;;;4.90;70.30;;;;;;2461520;55;21763;-71
2020/12/10 06:22:30;;;;;;;9.32;4.37;;;5.00;70.50;;;;;;2232306;56;21002;-72
2020/12/10 06:25:00;;;;;;;8.82;3.87;;;5.00;70.20;;;;;;2234330;56;20964;-71
2020/12/10 06:27:33;;;;;;;10.18;4.37;;;5.00;70.40;;;;;;2240496;56;21512;-71
2020/12/10 06:30:17;;;;;;;9.80;4.68;;;5.00;70.40;;;;;;2460750;55;20956;-71
2020/12/10 06:33:25;;;;;;;10.13;4.32;;;5.00;70.30;;;;;;2230723;56;21293;-71
2020/12/10 06:35:52;;;;;;;10.63;4.90;;;5.00;70.20;;;;;;2420278;56;21700;-71
2020/12/10 06:38:18;;;;;;;8.68;4.35;;;5.00;70.50;;;;;;2460402;55;20980;-71
2020/12/10 06:40:45;;;;;;;10.05;4.10;;;5.00;70.50;;;;;;2232785;56;21131;-71
2020/12/10 06:43:12;;;;;;;8.63;4.45;;;5.10;70.60;;;;;;2455673;56;20968;-72
2020/12/10 06:45:43;;;;;;;9.50;4.90;;;5.10;70.60;;;;;;2448738;55;21825;-71
2020/12/10 06:48:17;;;;;;;9.60;4.87;;;5.10;70.40;;;;;;2232652;55;20964;-71
2020/12/10 06:50:44;;;;;;;10.02;4.70;;;5.10;70.40;;;;;;2446018;56;21040;-71
2020/12/10 06:53:23;;;;;;;9.75;4.75;;;5.10;70.50;;;;;;2453234;55;21019;-71
2020/12/10 06:56:14;;;;;;;10.30;4.90;;;5.10;70.40;;;;;;2228820;55;20919;-72
2020/12/10 06:58:50;;;;;;;12.02;5.65;;;5.10;70.40;;;;;;2441358;55;20986;-72
2020/12/10 07:02:17;;;;;;;12.60;5.45;;;5.20;70.60;;;;;;2444258;55;21052;-71
2020/12/10 07:04:50;;;;;;;9.95;4.93;;;5.20;70.60;;;;;;2241858;56;20993;-72
2020/12/10 07:07:21;;;;;;;8.40;3.72;;;5.20;71.30;;;;;;2228176;55;20977;-72
2020/12/10 07:09:55;;;;;;;10.50;4.87;;;5.30;70.70;;;;;;2461980;55;21504;-72
2020/12/10 07:12:29;;;;;;;9.73;4.20;;;5.20;70.60;;;;;;2443428;55;21003;-72
2020/12/10 07:15:15;;;;;;;9.63;4.57;;;5.30;70.70;;;;;;2223778;55;21070;-72
2020/12/10 07:17:47;;;;;;;9.25;4.12;;;5.30;70.50;;;;;;2239107;55;21011;-72
2020/12/10 07:20:13;;;;;;;8.23;4.03;;;5.30;70.50;;;;;;2231549;56;21079;-72
2020/12/10 07:22:40;;;;;;;10.30;4.90;;;5.30;70.50;;;;;;2223879;55;20965;-72
2020/12/10 07:25:06;;;;;;;9.25;4.30;;;5.30;70.50;;;;;;2457053;55;20977;-71
2020/12/10 07:27:33;;;;;;;8.30;4.57;;;5.30;70.50;;;;;;2228136;55;20979;-71
2020/12/10 07:29:59;;;;;;;8.13;3.70;;;5.30;70.60;;;;;;2233365;56;20991;-71
2020/12/10 07:32:26;;;;;;;9.60;4.32;;;5.30;70.50;;;;;;2228563;55;20972;-71
2020/12/10 07:34:54;;;;;;;8.15;4.37;;;5.40;70.50;;;;;;2440122;55;20974;-72
2020/12/10 07:37:31;;;;;;;8.93;4.50;;;5.40;70.50;;;;;;2451302;56;21012;-71
2020/12/10 07:40:19;;;;;;;11.20;4.55;;;5.40;70.40;;;;;;2462028;55;20997;-72
2020/12/10 07:42:45;;;;;;;12.35;5.10;;;5.40;70.10;;;;;;2238193;56;21049;-72
2020/12/10 07:45:18;;;;;;;8.35;4.50;;;5.40;70.40;;;;;;2237907;56;21408;-72
2020/12/10 07:47:55;;;;;;;7.80;3.95;;;5.40;70.30;;;;;;2207258;57;21854;-72
2020/12/10 07:50:23;;;;;;;11.88;5.05;;;5.40;70.30;;;;;;2238039;56;20950;-71
2020/12/10 07:52:54;;;;;;;9.77;4.47;;;5.40;70.50;;;;;;2238429;56;20987;-72
2020/12/10 07:55:24;;;;;;;10.18;5.07;;;5.40;70.50;;;;;;2224833;55;20961;-72
2020/12/10 07:59:23;;;;;;;12.05;5.60;;;5.40;70.60;;;;;;2232214;55;21000;-72
2020/12/10 08:01:53;;;;;;;12.37;5.75;;;5.40;70.70;;;;;;2239186;55;21511;-72
2020/12/10 08:04:20;;;;;;;12.05;5.90;;;5.50;70.60;;;;;;2441542;55;20978;-72
2020/12/10 08:06:46;;;;;;;11.48;5.45;;;5.50;70.70;;;;;;2239613;56;21106;-72
2020/12/10 08:09:17;;;;;;;12.55;6.20;;;5.50;70.80;;;;;;2207225;56;20982;-72
2020/12/10 08:11:52;;;;;;;10.90;5.97;;;5.50;70.80;;;;;;2224183;55;21062;-72
2020/12/10 08:14:29;;;;;;;14.60;6.43;;;5.60;70.90;;;;;;2206139;57;20984;-72
2020/12/10 08:16:58;;;;;;;13.77;6.60;;;5.60;70.80;;;;;;2238232;56;21793;-72
2020/12/10 08:19:26;;;;;;;13.20;6.57;;;5.60;70.90;;;;;;2227767;56;20972;-71
2020/12/10 08:21:53;;;;;;;14.18;7.37;;;5.60;71.00;;;;;;2238340;56;21105;-72
2020/12/10 08:24:44;;;;;;;16.95;8.70;;;5.60;71.00;;;;;;2227134;56;21693;-72
2020/12/10 08:27:12;;;;;;;15.25;7.68;;;5.70;70.90;;;;;;2237138;56;21465;-72
2020/12/10 08:29:38;;;;;;;15.30;7.25;;;5.70;71.20;;;;;;2229031;55;21018;-72
2020/12/10 08:32:15;;;;;;;14.27;7.15;;;5.70;71.20;;;;;;2229737;55;21017;-71
2020/12/10 08:34:44;;;;;;;13.18;5.95;;;5.70;71.20;;;;;;2446810;56;21049;-72
2020/12/10 08:37:11;;;;;;;16.25;7.53;;;5.80;71.10;;;;;;2460345;55;21344;-72
2020/12/10 08:39:39;;;;;;;11.70;6.57;;;5.80;71.20;;;;;;2443677;56;20951;-72
2020/12/10 08:42:06;;;;;;;12.43;6.05;;;5.80;71.20;;;;;;2446329;55;20983;-72
2020/12/10 08:44:49;;;;;;;12.55;5.80;;;5.80;71.20;;;;;;2229426;55;21011;-72
2020/12/10 08:47:25;;;;;;;12.68;5.60;;;5.90;71.10;;;;;;2457464;56;20969;-72
2020/12/10 08:50:23;;;;;;;13.15;6.12;;;5.90;71.20;;;;;;2228292;55;20965;-72
2020/12/10 08:54:12;;;;;;;12.75;5.75;;;5.90;71.00;;;;;;2237452;56;20957;-72
2020/12/10 08:56:38;;;;;;;12.95;6.15;;;6.00;70.70;;;;;;2237814;56;20988;-72
2020/12/10 08:59:08;;;;;;;10.98;5.80;;;6.00;71.30;;;;;;2237756;56;20952;-72
2020/12/10 09:01:35;;;;;;;11.12;5.60;;;6.00;71.30;;;;;;2447834;56;20994;-72
2020/12/10 09:04:04;;;;;;;10.90;5.70;;;6.00;71.40;;;;;;2453447;55;20994;-72
2020/12/10 09:06:35;;;;;;;11.93;6.50;;;6.10;71.40;;;;;;2228719;56;21424;-72
2020/12/10 09:09:01;;;;;;;14.50;6.10;;;6.10;71.40;;;;;;2449273;55;20949;-72
2020/12/10 09:11:28;;;;;;;15.82;7.80;;;6.10;71.50;;;;;;2461184;55;20956;-72
2020/12/10 09:13:58;;;;;;;12.25;6.40;;;6.20;71.50;;;;;;2227215;56;20964;-72
2020/12/10 09:16:28;;;;;;;11.25;6.18;;;6.20;71.50;;;;;;2462481;55;21513;-72
2020/12/10 09:18:54;;;;;;;13.38;7.07;;;6.20;71.50;;;;;;2239203;56;21781;-72
2020/12/10 09:21:21;;;;;;;16.10;8.32;;;6.30;71.50;;;;;;2229707;56;21058;-73
2020/12/10 09:23:49;;;;;;;17.67;8.75;;;6.30;71.40;;;;;;2445557;56;20971;-72
2020/12/10 09:26:16;;;;;;;16.35;7.20;;;6.30;71.50;;;;;;2237149;56;20966;-72
2020/12/10 09:28:42;;;;;;;14.75;6.93;;;6.40;71.50;;;;;;2462838;55;21005;-72
2020/12/10 09:31:09;;;;;;;14.70;7.25;;;6.40;72.10;;;;;;2239596;56;21489;-72
2020/12/10 09:33:38;;;;;;;15.88;7.22;;;6.40;71.30;;;;;;2463010;55;21049;-72
2020/12/10 09:36:07;;;;;;;12.00;7.00;;;6.50;71.40;;;;;;2445439;56;20992;-72
2020/12/10 09:38:39;;;;;;;14.15;7.85;;;6.50;71.50;;;;;;2445752;55;21153;-72
2020/12/10 09:41:06;;;;;;;15.45;7.72;;;6.50;71.60;;;;;;2454111;55;20984;-72
2020/12/10 09:43:32;;;;;;;12.48;6.72;;;6.60;71.50;;;;;;2237775;56;20952;-72
2020/12/10 09:46:04;;;;;;;14.82;8.35;;;6.60;71.40;;;;;;2239048;56;20983;-72
2020/12/10 09:48:31;;;;;;;15.23;8.45;;;6.60;71.50;;;;;;2209765;56;21008;-72
2020/12/10 09:50:58;;;;;;;15.23;7.93;;;6.60;71.40;;;;;;2226227;56;20981;-73
2020/12/10 09:53:34;;;;;;;14.85;8.02;;;6.70;71.60;;;;;;2228882;55;20958;-73
2020/12/10 09:58:50;;;;;;;14.90;7.12;;;6.80;71.60;;;;;;2461639;56;20969;-73
2020/12/10 10:01:16;;;;;;;12.27;6.75;;;6.80;71.50;;;;;;2240744;56;21454;-72
2020/12/10 10:03:43;;;;;;;13.55;7.82;;;6.80;71.40;;;;;;2228563;55;20979;-72
2020/12/10 10:06:13;;;;;;;12.18;6.28;;;6.80;71.30;;;;;;2231635;55;21036;-72
2020/12/10 10:08:39;;;;;;;12.50;6.50;;;6.80;71.30;;;;;;2445570;56;21086;-72
2020/12/10 10:11:06;;;;;;;13.30;7.20;;;6.90;71.40;;;;;;2451978;55;20999;-72
2020/12/10 10:13:32;;;;;;;13.32;7.10;;;6.90;71.40;;;;;;2227110;55;20969;-71
2020/12/10 10:16:01;;;;;;;12.55;7.05;;;6.90;71.30;;;;;;2239406;56;21035;-72
2020/12/10 10:18:29;;;;;;;13.00;6.62;;;6.90;71.40;;;;;;2228025;56;21058;-72
2020/12/10 10:20:55;;;;;;;13.82;6.47;;;7.00;71.40;;;;;;2451910;55;21396;-72
2020/12/10 10:23:23;;;;;;;12.50;6.20;;;7.00;71.40;;;;;;2223776;55;21107;-72
2020/12/10 10:25:50;;;;;;;11.77;6.55;;;7.00;71.40;;;;;;2459231;55;20949;-72
2020/12/10 10:28:16;;;;;;;14.27;7.40;;;7.00;71.40;;;;;;2446116;55;20940;-72
2020/12/10 10:30:43;;;;;;;11.63;6.22;;;7.10;71.40;;;;;;2234081;56;20995;-72
2020/12/10 10:33:09;;;;;;;11.75;6.10;;;7.10;71.40;;;;;;2231178;56;21001;-72
2020/12/10 10:35:36;;;;;;;11.63;6.07;;;7.10;71.40;;;;;;2235412;56;21031;-72
2020/12/10 10:38:03;;;;;;;13.68;6.80;;;7.20;71.30;;;;;;2444860;55;21590;-72
2020/12/10 10:40:31;;;;;;;12.90;6.35;;;7.20;71.20;;;;;;2446515;55;21006;-72
2020/12/10 10:42:58;;;;;;;13.02;6.90;;;7.20;71.10;;;;;;2445811;55;21541;-72
2020/12/10 10:45:24;;;;;;;12.27;6.82;;;7.20;71.00;;;;;;2226488;55;20994;-72
2020/12/10 10:47:52;;;;;;;12.43;7.07;;;7.30;71.20;;;;;;2239216;56;21004;-72
2020/12/10 10:50:18;;;;;;;15.95;6.87;;;7.30;71.10;;;;;;2238233;56;21039;-72
2020/12/10 10:52:45;;;;;;;12.15;7.40;;;7.30;71.00;;;;;;2227251;56;21041;-72
2020/12/10 10:55:12;;;;;;;16.17;8.20;;;7.30;71.00;;;;;;2234771;56;20987;-72
2020/12/10 10:57:39;;;;;;;13.13;7.32;;;7.30;70.90;;;;;;2230759;56;21491;-72
2020/12/10 11:00:06;;;;;;;12.23;7.35;;;7.40;70.80;;;;;;2238554;56;20992;-72
2020/12/10 11:02:32;;;;;;;13.85;7.82;;;7.40;70.80;;;;;;2238832;56;21052;-72
2020/12/10 11:04:59;;;;;;;13.62;8.05;;;7.40;70.90;;;;;;2237115;55;20977;-72
2020/12/10 11:07:26;;;;;;;12.95;7.40;;;7.40;71.00;;;;;;2230913;55;20951;-72
2020/12/10 11:09:52;;;;;;;14.18;7.53;;;7.40;70.80;;;;;;2235675;56;20949;-71
2020/12/10 11:12:21;;;;;;;18.73;10.00;;;7.40;70.80;;;;;;2238522;56;20929;-72
2020/12/10 11:14:48;;;;;;;15.38;7.90;;;7.50;70.80;;;;;;2232007;56;21056;-72
2020/12/10 11:17:17;;;;;;;57.08;19.62;;;7.50;70.80;;;;;;2442630;55;21003;-72
2020/12/10 11:19:44;;;;;;;31.62;13.55;;;7.50;70.80;;;;;;2206293;57;21008;-72
2020/12/10 11:22:10;;;;;;;38.65;15.38;;;7.50;70.80;;;;;;2444095;55;21320;-72
2020/12/10 11:24:37;;;;;;;38.00;16.85;;;7.50;70.80;;;;;;2238244;56;21002;-72
2020/12/10 11:27:03;;;;;;;24.05;11.43;;;7.60;70.80;;;;;;2462643;55;21046;-72
2020/12/10 11:29:31;;;;;;;21.08;12.60;;;7.60;70.70;;;;;;2449196;55;21126;-72
2020/12/10 11:31:57;;;;;;;17.70;10.85;;;7.60;70.70;;;;;;2460414;56;21971;-72
2020/12/10 11:34:24;;;;;;;18.90;12.02;;;7.60;70.70;;;;;;2441267;55;21053;-72
2020/12/10 11:36:51;;;;;;;18.30;10.55;;;7.60;70.60;;;;;;2449867;55;20996;-72
2020/12/10 11:39:18;;;;;;;15.00;8.63;;;7.60;70.40;;;;;;2224933;55;20957;-72
2020/12/10 11:41:45;;;;;;;12.55;7.25;;;7.60;70.20;;;;;;2206530;56;21961;-72
2020/12/10 11:44:11;;;;;;;15.15;7.82;;;7.60;70.20;;;;;;2230663;56;21024;-72
2020/12/10 11:46:38;;;;;;;14.77;8.32;;;7.60;70.10;;;;;;2233321;55;20983;-72
2020/12/10 11:49:09;;;;;;;11.48;6.55;;;7.60;70.10;;;;;;2442204;55;21015;-72
2020/12/10 11:51:44;;;;;;;14.25;6.95;;;7.60;70.20;;;;;;2442507;55;21023;-72
2020/12/10 11:54:10;;;;;;;13.18;7.78;;;7.60;70.20;;;;;;2230482;55;21047;-72
2020/12/10 11:56:39;;;;;;;15.65;7.93;;;7.60;70.40;;;;;;2227527;55;21018;-72
2020/12/10 11:59:06;;;;;;;12.40;7.40;;;7.60;70.20;;;;;;2226223;55;21031;-72
2020/12/10 12:01:33;;;;;;;14.43;8.32;;;7.60;70.10;;;;;;2456784;55;21053;-72
2020/12/10 12:04:00;;;;;;;12.82;7.62;;;7.60;70.00;;;;;;2231583;56;20976;-72
2020/12/10 12:06:27;;;;;;;12.35;6.90;;;7.60;70.00;;;;;;2446296;56;21051;-72
2020/12/10 12:08:54;;;;;;;14.48;7.30;;;7.60;70.00;;;;;;2441220;55;20967;-72
2020/12/10 12:11:24;;;;;;;12.73;6.65;;;7.60;70.00;;;;;;2230281;55;21418;-72
2020/12/10 12:13:51;;;;;;;13.35;7.43;;;7.60;70.00;;;;;;2238306;55;21056;-72
2020/12/10 12:16:18;;;;;;;14.40;8.70;;;7.60;70.20;;;;;;2238287;56;21021;-72
2020/12/10 12:18:45;;;;;;;14.63;8.20;;;7.60;70.40;;;;;;2461878;55;21104;-72
2020/12/10 12:21:11;;;;;;;12.05;7.30;;;7.60;70.40;;;;;;2237759;56;20964;-72
2020/12/10 12:23:38;;;;;;;14.73;8.73;;;7.70;70.60;;;;;;2236798;56;20987;-72
2020/12/10 12:26:05;;;;;;;12.00;6.55;;;7.70;70.50;;;;;;2225871;55;20986;-72
2020/12/10 12:28:31;;;;;;;14.02;7.55;;;7.70;70.40;;;;;;2235434;55;20956;-72
2020/12/10 12:30:59;;;;;;;12.65;6.85;;;7.70;70.30;;;;;;2445242;56;20959;-72
2020/12/10 12:33:25;;;;;;;14.75;7.55;;;7.70;70.30;;;;;;2416051;56;21622;-72
2020/12/10 12:35:52;;;;;;;13.43;7.25;;;7.70;70.30;;;;;;2447198;55;21822;-72
2020/12/10 12:38:18;;;;;;;11.95;6.70;;;7.70;70.20;;;;;;2227043;55;21952;-72
2020/12/10 12:40:49;;;;;;;13.23;6.80;;;7.70;70.00;;;;;;2461545;55;20972;-72
2020/12/10 12:43:15;;;;;;;13.45;7.25;;;7.70;70.00;;;;;;2444751;56;21844;-72
2020/12/10 12:45:42;;;;;;;12.75;7.18;;;7.70;70.00;;;;;;2229343;56;21112;-72
2020/12/10 12:48:09;;;;;;;13.02;6.35;;;7.70;70.00;;;;;;2236037;56;20964;-72
2020/12/10 12:50:35;;;;;;;13.43;7.20;;;7.70;69.90;;;;;;2461508;55;21549;-72
2020/12/10 12:53:03;;;;;;;12.85;7.30;;;7.70;69.90;;;;;;2238571;56;21078;-72
2020/12/10 12:55:30;;;;;;;12.60;6.68;;;7.70;70.00;;;;;;2227330;56;21360;-72
2020/12/10 12:57:57;;;;;;;11.02;6.20;;;7.70;70.00;;;;;;2236609;56;21899;-72
2020/12/10 13:00:24;;;;;;;10.80;6.18;;;7.70;70.10;;;;;;2439908;55;20986;-72
2020/12/10 13:02:51;;;;;;;11.60;6.82;;;7.70;70.00;;;;;;2232448;55;20980;-72